首页
METAR-TAF:

METAR-TAF

机场 :

敖德薩國際機場

敖德薩, 乌克兰

纬度: 46-26N, 经度: 030-46E, 海拔: 42米

当前天气观测

该预报发布于27分钟前的20:30 UTC
风速4节,风向东北
温度 17°C
湿度 82%
气压 1016 hPa
能见度10公里或以上
散云层高于2600英尺

METAR: UKOO 232030Z 05002MPS 9999 SCT026 17/14 Q1016 R16/090060 NOSIG

时间: 23:57 (20:57 UTC)

预报

该预报发布于3小时和52分钟前的17:05 UTC
预报有效从23日的 18点(UTC)到 24日的 18点(UTC)
风速6节,风向
能見度: 2100
多云层高于700英尺
散云层高于2000英尺, 积雨云.
轻雾
几率 40% :
短暂存在
从 23日的 20点(UTC)到 24日的 05点(UTC)
能見度: 0800
层高于300英尺
成为
从 24日的 05点(UTC)到 24日的 07点(UTC)
风速6节,风向东转东南,有时为16节阵风
能見度: 6000

TAF: UKOO 231705Z 2318/2418 09003MPS 2100 BR BKN007 SCT020CB PROB40 TEMPO 2320/2405 0800 FG VV003 BECMG 2405/2407 12003G08MPS 6000 NSW

超过4000个机场的气象观测和天气预报(METAR&TAF报告)。

可查询的气象台以黄色和红色小点在地图上表示。

将鼠标移到小点上方,可查看气象台名称。

然后点击查看天气观测和预报。

如需切换地图:点击带黑十字的绿色按钮放大地图;点击带横线的绿色按钮缩小地图;或者点击绿色箭头查看邻近地区的地图。


METAR-TAF: